createdAt,value
2019-05-05T00:02:04.887Z,11.15
2019-05-05T00:04:45.520Z,11.18
2019-05-05T00:07:15.824Z,11.20
2019-05-05T00:09:44.995Z,9.68
2019-05-05T00:12:21.247Z,9.95
2019-05-05T00:14:51.653Z,12.70
2019-05-05T00:17:21.723Z,10.65
2019-05-05T00:19:50.254Z,9.55
2019-05-05T00:22:19.103Z,11.85
2019-05-05T00:24:47.618Z,11.88
2019-05-05T00:27:16.075Z,13.13
2019-05-05T00:29:45.347Z,10.80
2019-05-05T00:32:15.264Z,12.73
2019-05-05T00:34:44.603Z,9.40
2019-05-05T00:37:15.231Z,8.95
2019-05-05T00:39:45.169Z,9.65
2019-05-05T00:42:15.407Z,9.73
2019-05-05T00:44:44.788Z,9.25
2019-05-05T00:47:25.067Z,8.43
2019-05-05T00:49:56.151Z,8.55
2019-05-05T00:52:24.583Z,10.32
2019-05-05T00:54:55.446Z,13.13
2019-05-05T00:57:24.318Z,12.68
2019-05-05T00:59:54.394Z,10.80
2019-05-05T01:02:27.606Z,11.63
2019-05-05T01:05:00.680Z,12.30
2019-05-05T01:07:29.182Z,12.15
2019-05-05T01:09:57.777Z,11.35
2019-05-05T01:12:26.799Z,11.10
2019-05-05T01:14:55.401Z,11.95
2019-05-05T01:17:25.330Z,10.40
2019-05-05T01:20:03.412Z,11.30
2019-05-05T01:22:25.086Z,11.95
2019-05-05T01:24:55.457Z,12.58
2019-05-05T01:27:25.465Z,12.70
2019-05-05T01:29:54.674Z,11.83
2019-05-05T01:32:28.203Z,11.83
2019-05-05T01:34:57.007Z,12.25
2019-05-05T01:37:29.881Z,12.33
2019-05-05T01:42:27.972Z,13.22
2019-05-05T01:44:56.475Z,13.90
2019-05-05T01:47:25.461Z,14.05
2019-05-05T01:49:54.635Z,11.75
2019-05-05T01:52:25.262Z,13.50
2019-05-05T01:54:54.808Z,12.05
2019-05-05T01:57:25.205Z,14.15
2019-05-05T01:59:55.210Z,13.98
2019-05-05T02:02:25.104Z,12.93
2019-05-05T02:04:55.347Z,13.80
2019-05-05T02:07:25.031Z,13.93
2019-05-05T02:09:55.345Z,14.63
2019-05-05T02:12:24.652Z,13.18
2019-05-05T02:14:55.111Z,12.63
2019-05-05T02:17:24.721Z,14.15
2019-05-05T02:19:54.941Z,13.18
2019-05-05T02:22:25.228Z,13.55
2019-05-05T02:24:55.089Z,13.65
2019-05-05T02:27:25.168Z,13.43
2019-05-05T02:29:55.709Z,13.48
2019-05-05T02:32:26.024Z,13.45
2019-05-05T02:34:59.288Z,14.20
2019-05-05T02:37:27.856Z,16.80
2019-05-05T02:40:02.471Z,14.75
2019-05-05T02:42:27.608Z,15.08
2019-05-05T02:44:59.235Z,13.95
2019-05-05T02:47:38.325Z,13.08
2019-05-05T02:50:07.869Z,12.20
2019-05-05T02:52:39.310Z,14.53
2019-05-05T02:55:09.151Z,15.20
2019-05-05T02:57:37.725Z,14.30
2019-05-05T03:00:20.986Z,13.62
2019-05-05T03:02:49.479Z,15.00
2019-05-05T03:05:18.047Z,14.75
2019-05-05T03:07:47.054Z,14.65
2019-05-05T03:10:15.727Z,16.27
2019-05-05T03:12:45.087Z,15.40
2019-05-05T03:15:28.727Z,18.07
2019-05-05T03:17:57.312Z,16.67
2019-05-05T03:20:25.891Z,15.58
2019-05-05T03:22:54.407Z,15.15
2019-05-05T03:25:24.162Z,16.25
2019-05-05T03:27:53.764Z,14.38
2019-05-05T03:30:25.784Z,14.78
2019-05-05T03:32:55.697Z,15.32
2019-05-05T03:35:24.087Z,14.60
2019-05-05T03:37:54.478Z,13.95
2019-05-05T03:40:24.848Z,14.85
2019-05-05T03:42:57.918Z,14.58
2019-05-05T03:45:37.693Z,15.32
2019-05-05T03:48:06.364Z,14.30
2019-05-05T03:50:35.549Z,12.90
2019-05-05T03:53:04.917Z,13.95
2019-05-05T03:55:34.619Z,13.55
2019-05-05T03:58:04.090Z,13.80
2019-05-05T04:00:54.910Z,13.53
2019-05-05T04:03:23.745Z,13.38
2019-05-05T04:05:56.755Z,13.60
2019-05-05T04:10:54.670Z,12.20
2019-05-05T04:13:24.255Z,12.63
2019-05-05T04:15:54.486Z,13.15
2019-05-05T04:18:24.564Z,12.93
2019-05-05T04:20:53.500Z,13.18
2019-05-05T04:23:21.986Z,13.18
2019-05-05T04:25:50.555Z,14.70
2019-05-05T04:28:18.996Z,14.15
2019-05-05T04:30:47.449Z,13.15
2019-05-05T04:33:15.878Z,13.65
2019-05-05T04:35:44.551Z,13.75
2019-05-05T04:38:13.870Z,12.00
2019-05-05T04:40:43.532Z,12.07
2019-05-05T04:43:14.269Z,11.90
2019-05-05T04:45:43.587Z,17.85
2019-05-05T04:48:13.921Z,16.85
2019-05-05T04:50:47.352Z,14.00
2019-05-05T04:53:24.114Z,15.25
2019-05-05T04:55:53.618Z,12.47
2019-05-05T04:58:24.150Z,13.05
2019-05-05T05:00:54.548Z,12.25
2019-05-05T05:03:39.806Z,10.98
2019-05-05T05:06:15.882Z,11.20
2019-05-05T05:08:44.537Z,10.80
2019-05-05T05:11:14.163Z,11.28
2019-05-05T05:13:44.021Z,11.30
2019-05-05T05:16:13.887Z,10.53
2019-05-05T05:18:44.570Z,11.45
2019-05-05T05:21:14.498Z,11.93
2019-05-05T05:23:44.360Z,12.23
2019-05-05T05:26:13.936Z,12.03
2019-05-05T05:28:44.603Z,14.63
2019-05-05T05:31:14.060Z,16.23
2019-05-05T05:33:43.679Z,11.30
2019-05-05T05:36:14.275Z,11.85
2019-05-05T05:38:44.219Z,9.15
2019-05-05T05:41:14.223Z,10.45
2019-05-05T05:43:56.629Z,11.60
2019-05-05T05:46:43.808Z,10.90
2019-05-05T05:49:19.259Z,9.43
2019-05-05T05:51:47.703Z,10.13
2019-05-05T05:54:19.045Z,9.23
2019-05-05T05:56:47.823Z,8.20
2019-05-05T05:59:16.715Z,7.97
2019-05-05T06:01:45.219Z,7.70
2019-05-05T06:04:14.510Z,9.30
2019-05-05T06:06:43.891Z,9.88
2019-05-05T06:09:14.669Z,11.25
2019-05-05T06:11:43.675Z,13.95
2019-05-05T06:14:14.432Z,10.30
2019-05-05T06:16:44.492Z,14.50
2019-05-05T06:19:14.062Z,12.37
2019-05-05T06:21:43.991Z,10.63
2019-05-05T06:24:13.631Z,10.00
2019-05-05T06:26:44.389Z,9.58
2019-05-05T06:29:14.432Z,9.25
2019-05-05T06:31:44.545Z,10.30
2019-05-05T06:34:13.974Z,9.10
2019-05-05T06:36:44.484Z,8.20
2019-05-05T06:39:13.640Z,8.70
2019-05-05T06:41:49.774Z,8.03
2019-05-05T06:44:24.713Z,9.05
2019-05-05T06:46:57.634Z,9.05
2019-05-05T06:49:26.165Z,12.13
2019-05-05T06:51:54.826Z,9.13
2019-05-05T06:54:24.232Z,8.08
2019-05-05T06:56:53.861Z,8.88
2019-05-05T06:59:24.383Z,19.02
2019-05-05T07:01:53.612Z,12.93
2019-05-05T07:04:24.413Z,9.48
2019-05-05T07:06:56.704Z,8.60
2019-05-05T07:09:24.483Z,11.12
2019-05-05T07:11:54.101Z,10.25
2019-05-05T07:14:23.640Z,10.90
2019-05-05T07:16:54.325Z,13.48
2019-05-05T07:19:23.953Z,11.28
2019-05-05T07:21:53.828Z,6.92
2019-05-05T07:24:23.890Z,11.08
2019-05-05T07:26:54.105Z,8.10
2019-05-05T07:29:23.953Z,8.88
2019-05-05T07:31:54.526Z,8.50
2019-05-05T07:34:24.277Z,9.68
2019-05-05T07:36:54.843Z,7.65
2019-05-05T07:39:23.811Z,16.50
2019-05-05T07:41:54.193Z,11.90
2019-05-05T07:44:29.072Z,6.65
2019-05-05T07:46:54.337Z,10.65
2019-05-05T07:49:24.885Z,10.18
2019-05-05T07:51:54.758Z,6.97
2019-05-05T07:54:23.806Z,6.30
2019-05-05T07:56:53.991Z,5.35
2019-05-05T07:59:23.834Z,8.35
2019-05-05T08:01:54.605Z,10.30
2019-05-05T08:04:24.270Z,12.90
2019-05-05T08:06:53.849Z,5.08
2019-05-05T08:09:24.687Z,14.25
2019-05-05T08:11:54.275Z,6.10
2019-05-05T08:14:24.569Z,16.52
2019-05-05T08:16:54.856Z,19.15
2019-05-05T08:19:37.047Z,13.93
2019-05-05T08:22:05.687Z,11.30
2019-05-05T08:24:41.569Z,7.60
2019-05-05T08:27:14.336Z,7.20
2019-05-05T08:29:43.954Z,14.20
2019-05-05T08:32:26.321Z,13.13
2019-05-05T08:35:00.366Z,17.47
2019-05-05T08:37:25.363Z,8.88
2019-05-05T08:39:54.074Z,5.33
2019-05-05T08:42:24.669Z,6.47
2019-05-05T08:44:53.861Z,9.75
2019-05-05T08:47:24.454Z,8.30
2019-05-05T08:49:58.671Z,5.83
2019-05-05T08:52:27.839Z,5.08
2019-05-05T08:54:56.276Z,10.10
2019-05-05T08:57:24.707Z,8.80
2019-05-05T08:59:54.597Z,8.78
2019-05-05T09:02:23.904Z,20.12
2019-05-05T09:04:53.788Z,11.35
2019-05-05T09:07:24.170Z,5.87
2019-05-05T09:09:54.491Z,13.65
2019-05-05T09:12:24.295Z,5.95
2019-05-05T09:14:53.871Z,12.35
2019-05-05T09:17:24.380Z,10.25
2019-05-05T09:19:53.730Z,18.23
2019-05-05T09:22:24.405Z,7.55
2019-05-05T09:25:04.320Z,9.83
2019-05-05T09:27:40.116Z,11.73
2019-05-05T09:30:10.918Z,9.93
2019-05-05T09:32:40.916Z,10.88
2019-05-05T09:35:09.792Z,8.40
2019-05-05T09:40:09.682Z,7.17
2019-05-05T09:42:38.495Z,4.72
2019-05-05T09:45:07.933Z,5.85
2019-05-05T09:47:36.459Z,8.93
2019-05-05T09:50:06.703Z,8.20
2019-05-05T09:52:35.128Z,4.50
2019-05-05T09:55:06.635Z,4.60
2019-05-05T09:57:36.083Z,5.25
2019-05-05T10:00:08.196Z,13.03
2019-05-05T10:06:17.703Z,11.33
2019-05-05T10:08:46.139Z,6.67
2019-05-05T10:11:16.450Z,11.70
2019-05-05T10:13:45.154Z,12.50
2019-05-05T10:16:14.416Z,7.80
2019-05-05T10:18:44.678Z,10.45
2019-05-05T10:21:13.864Z,8.65
2019-05-05T10:23:44.127Z,6.83
2019-05-05T10:26:14.948Z,6.80
2019-05-05T10:28:44.460Z,8.63
2019-05-05T10:31:13.823Z,4.45
2019-05-05T10:33:46.850Z,7.42
2019-05-05T10:36:15.272Z,7.47
2019-05-05T10:38:45.404Z,10.38
2019-05-05T10:41:13.954Z,5.33
2019-05-05T10:43:43.697Z,7.72
2019-05-05T10:46:14.229Z,11.45
2019-05-05T10:48:44.456Z,4.28
2019-05-05T10:51:12.791Z,9.18
2019-05-05T10:53:41.213Z,4.62
2019-05-05T10:56:09.742Z,7.37
2019-05-05T10:58:38.512Z,10.08
2019-05-05T11:01:07.025Z,4.87
2019-05-05T11:03:35.614Z,5.00
2019-05-05T11:06:04.643Z,4.53
2019-05-05T11:08:34.770Z,2.72
2019-05-05T11:11:04.212Z,6.50
2019-05-05T11:13:34.478Z,7.85
2019-05-05T11:16:03.987Z,2.58
2019-05-05T11:18:34.609Z,6.70
2019-05-05T11:21:04.058Z,4.72
2019-05-05T11:23:34.644Z,3.30
2019-05-05T11:26:03.410Z,5.53
2019-05-05T11:28:33.993Z,3.90
2019-05-05T11:31:04.461Z,2.60
2019-05-05T11:33:34.751Z,3.50
2019-05-05T11:36:07.825Z,3.92
2019-05-05T11:41:05.000Z,4.47
2019-05-05T11:43:33.911Z,4.87
2019-05-05T11:46:02.471Z,3.30
2019-05-05T11:48:34.811Z,4.10
2019-05-05T11:51:04.547Z,3.27
2019-05-05T11:53:33.961Z,6.00
2019-05-05T11:56:04.204Z,7.40
2019-05-05T11:58:34.103Z,5.37
2019-05-05T12:01:03.721Z,5.05
2019-05-05T12:03:33.957Z,3.80
2019-05-05T12:06:03.926Z,4.80
2019-05-05T12:08:34.491Z,4.92
2019-05-05T12:11:04.827Z,3.42
2019-05-05T12:13:33.947Z,5.05
2019-05-05T12:16:04.620Z,5.08
2019-05-05T12:18:34.269Z,5.92
2019-05-05T12:21:05.155Z,5.10
2019-05-05T12:23:34.148Z,7.87
2019-05-05T12:26:04.791Z,3.98
2019-05-05T12:28:37.706Z,3.72
2019-05-05T12:31:14.117Z,3.20
2019-05-05T12:33:44.190Z,4.92
2019-05-05T12:36:14.925Z,4.60
2019-05-05T12:38:43.981Z,3.95
2019-05-05T12:41:14.761Z,3.12
2019-05-05T12:43:44.709Z,3.92
2019-05-05T12:46:14.845Z,3.52
2019-05-05T12:48:44.960Z,3.75
2019-05-05T12:51:14.693Z,2.95
2019-05-05T12:53:43.355Z,5.12
2019-05-05T12:56:11.876Z,5.92
2019-05-05T12:58:41.223Z,5.17
2019-05-05T13:01:14.493Z,5.33
2019-05-05T13:03:43.795Z,4.97
2019-05-05T13:06:14.588Z,5.42
2019-05-05T13:08:44.521Z,2.47
2019-05-05T13:11:13.761Z,3.80
2019-05-05T13:13:43.975Z,5.42
2019-05-05T13:16:13.626Z,4.95
2019-05-05T13:18:42.547Z,3.65
2019-05-05T13:21:30.219Z,4.10
2019-05-05T13:24:00.311Z,7.05
2019-05-05T13:26:46.540Z,9.45
2019-05-05T13:29:15.302Z,5.08
2019-05-05T13:31:45.341Z,3.33
2019-05-05T13:34:13.827Z,6.80
2019-05-05T13:36:44.172Z,5.42
2019-05-05T13:39:14.390Z,7.03
2019-05-05T13:41:44.835Z,4.47
2019-05-05T13:44:19.127Z,6.25
2019-05-05T13:46:47.840Z,6.40
2019-05-05T13:49:17.913Z,7.92
2019-05-05T13:51:46.413Z,12.10
2019-05-05T13:54:16.198Z,6.47
2019-05-05T13:56:44.747Z,4.97
2019-05-05T13:59:14.084Z,6.47
2019-05-05T14:01:44.760Z,7.17
2019-05-05T14:04:13.122Z,7.42
2019-05-05T14:06:41.653Z,7.95
2019-05-05T14:09:10.811Z,13.20
2019-05-05T14:11:39.434Z,7.15
2019-05-05T14:14:07.851Z,6.45
2019-05-05T14:16:36.944Z,7.05
2019-05-05T14:19:05.527Z,4.67
2019-05-05T14:21:34.078Z,9.35
2019-05-05T14:24:04.322Z,6.58
2019-05-05T14:26:35.198Z,5.70
2019-05-05T14:29:04.283Z,4.95
2019-05-05T14:31:35.751Z,5.20
2019-05-05T14:34:06.727Z,7.62
2019-05-05T14:36:44.151Z,3.35
2019-05-05T14:39:14.972Z,6.33
2019-05-05T14:41:44.573Z,6.30
2019-05-05T14:44:13.496Z,4.83
2019-05-05T14:46:42.124Z,6.37
2019-05-05T14:49:10.620Z,6.65
2019-05-05T14:51:40.055Z,7.58
2019-05-05T14:54:10.800Z,11.70
2019-05-05T14:56:39.023Z,13.98
2019-05-05T14:59:09.067Z,18.50
2019-05-05T15:01:37.504Z,25.37
2019-05-05T15:04:06.268Z,20.52
2019-05-05T15:06:39.153Z,10.80
2019-05-05T15:09:09.867Z,4.00
2019-05-05T15:11:49.367Z,3.92
2019-05-05T15:14:17.868Z,5.80
2019-05-05T15:16:46.297Z,3.67
2019-05-05T15:19:14.834Z,2.75
2019-05-05T15:21:44.317Z,3.55
2019-05-05T15:24:13.821Z,3.50
2019-05-05T15:26:50.626Z,7.25
2019-05-05T15:29:12.903Z,4.40
2019-05-05T15:31:43.544Z,5.95
2019-05-05T15:34:12.258Z,14.73
2019-05-05T15:36:41.103Z,13.88
2019-05-05T15:39:09.711Z,5.53
2019-05-05T15:41:38.247Z,12.50
2019-05-05T15:44:07.860Z,8.18
2019-05-05T15:46:36.038Z,12.63
2019-05-05T15:49:05.457Z,4.47
2019-05-05T15:51:34.351Z,4.37
2019-05-05T15:54:03.844Z,7.78
2019-05-05T15:56:34.060Z,1.60
2019-05-05T15:59:02.840Z,1.82
2019-05-05T16:01:31.375Z,14.65
2019-05-05T16:03:59.872Z,10.23
2019-05-05T16:06:28.584Z,16.10
2019-05-05T16:08:57.044Z,8.65
2019-05-05T16:11:26.980Z,7.40
2019-05-05T16:13:55.654Z,9.20
2019-05-05T16:16:30.202Z,5.92
2019-05-05T16:19:05.633Z,3.62
2019-05-05T16:21:38.707Z,5.47
2019-05-05T16:24:08.924Z,8.28
2019-05-05T16:26:37.500Z,10.25
2019-05-05T16:29:06.333Z,8.38
2019-05-05T16:31:34.830Z,5.05
2019-05-05T16:34:03.853Z,7.60
2019-05-05T16:36:34.036Z,7.78
2019-05-05T16:39:02.779Z,8.10
2019-05-05T16:41:31.506Z,7.47
2019-05-05T16:44:00.367Z,7.37
2019-05-05T16:46:28.820Z,5.50
2019-05-05T16:48:57.373Z,3.90
2019-05-05T16:51:27.525Z,4.67
2019-05-05T16:53:57.713Z,4.30
2019-05-05T16:58:53.907Z,4.53
2019-05-05T17:01:22.663Z,4.90
2019-05-05T17:03:51.511Z,5.67
2019-05-05T17:06:20.480Z,4.00
2019-05-05T17:08:49.328Z,5.87
2019-05-05T17:11:18.199Z,7.05
2019-05-05T17:13:48.556Z,8.80
2019-05-05T17:16:30.611Z,5.30
2019-05-05T17:19:06.893Z,6.10
2019-05-05T17:21:53.642Z,8.73
2019-05-05T17:24:23.985Z,12.47
2019-05-05T17:26:54.890Z,8.23
2019-05-05T17:34:24.468Z,6.20
2019-05-05T17:36:53.597Z,6.60
2019-05-05T17:39:24.003Z,8.03
2019-05-05T17:41:54.304Z,8.08
2019-05-05T17:44:27.353Z,7.33
2019-05-05T17:49:54.128Z,5.58
2019-05-05T17:52:36.536Z,5.70
2019-05-05T17:55:24.280Z,6.37
2019-05-05T17:58:01.534Z,7.20
2019-05-05T18:00:24.358Z,7.08
2019-05-05T18:02:53.580Z,10.50
2019-05-05T18:05:38.910Z,5.92
2019-05-05T18:08:07.405Z,7.30
2019-05-05T18:10:37.488Z,5.53
2019-05-05T18:13:08.116Z,9.80
2019-05-05T18:15:49.492Z,8.58
2019-05-05T18:18:18.364Z,7.58
2019-05-05T18:20:47.121Z,8.08
2019-05-05T18:23:15.636Z,7.22
2019-05-05T18:25:44.234Z,8.48
2019-05-05T18:28:19.481Z,9.33
2019-05-05T18:30:44.392Z,8.18
2019-05-05T18:33:13.679Z,9.88
2019-05-05T18:35:44.268Z,10.78
2019-05-05T18:38:13.762Z,10.23
2019-05-05T18:40:43.431Z,18.85
2019-05-05T18:43:13.802Z,11.50
2019-05-05T18:45:44.185Z,9.13
2019-05-05T18:48:13.961Z,13.03
2019-05-05T18:50:42.851Z,9.58
2019-05-05T18:53:11.299Z,7.50
2019-05-05T18:55:40.104Z,5.60
2019-05-05T18:58:08.567Z,9.23
2019-05-05T19:00:48.283Z,8.38
2019-05-05T19:03:20.720Z,8.45
2019-05-05T19:05:56.921Z,9.30
2019-05-05T19:08:27.003Z,10.60
2019-05-05T19:10:55.513Z,9.10
2019-05-05T19:13:24.558Z,6.87
2019-05-05T19:15:53.900Z,8.55
2019-05-05T19:18:24.320Z,13.30
2019-05-05T19:21:00.411Z,10.78
2019-05-05T19:23:29.186Z,7.60
2019-05-05T19:25:57.691Z,10.53
2019-05-05T19:28:41.039Z,8.73
2019-05-05T19:30:57.667Z,15.28
2019-05-05T19:33:26.167Z,10.65
2019-05-05T19:35:54.705Z,18.00
2019-05-05T19:38:23.696Z,7.85
2019-05-05T19:40:55.993Z,7.58
2019-05-05T19:43:24.447Z,11.90
2019-05-05T19:45:55.088Z,28.83
2019-05-05T19:48:24.469Z,48.85
2019-05-05T19:50:54.696Z,41.92
2019-05-05T19:53:24.500Z,13.97
2019-05-05T19:55:56.743Z,10.78
2019-05-05T19:58:27.931Z,10.28
2019-05-05T20:00:58.436Z,10.65
2019-05-05T20:03:27.048Z,10.60
2019-05-05T20:05:55.681Z,12.85
2019-05-05T20:08:24.233Z,18.30
2019-05-05T20:10:54.178Z,9.03
2019-05-05T20:13:22.561Z,9.98
2019-05-05T20:15:53.757Z,9.90
2019-05-05T20:18:22.335Z,11.80
2019-05-05T20:21:03.126Z,16.45
2019-05-05T20:23:22.008Z,15.48
2019-05-05T20:25:50.776Z,12.40
2019-05-05T20:28:19.221Z,8.38
2019-05-05T20:30:47.737Z,8.70
2019-05-05T20:33:26.460Z,10.23
2019-05-05T20:35:57.896Z,8.68
2019-05-05T20:38:37.472Z,9.18
2019-05-05T20:41:10.493Z,12.10
2019-05-05T20:46:09.376Z,10.53
2019-05-05T20:48:41.013Z,5.30
2019-05-05T20:51:08.167Z,5.62
2019-05-05T20:53:37.863Z,7.97
2019-05-05T20:56:06.443Z,7.92
2019-05-05T20:58:34.938Z,7.55
2019-05-05T21:01:04.530Z,7.70
2019-05-05T21:03:34.722Z,10.43
2019-05-05T21:06:04.446Z,5.70
2019-05-05T21:08:34.755Z,4.53
2019-05-05T21:11:04.370Z,7.60
2019-05-05T21:13:34.143Z,7.42
2019-05-05T21:16:03.011Z,7.95
2019-05-05T21:18:31.565Z,22.17
2019-05-05T21:21:01.916Z,23.45
2019-05-05T21:23:34.117Z,12.45
2019-05-05T21:26:04.446Z,10.23
2019-05-05T21:28:33.730Z,13.00
2019-05-05T21:31:02.183Z,9.08
2019-05-05T21:33:30.780Z,8.75
2019-05-05T21:35:59.329Z,9.00
2019-05-05T21:38:27.772Z,10.68
2019-05-05T21:40:56.208Z,11.50
2019-05-05T21:43:24.991Z,7.17
2019-05-05T21:45:53.835Z,8.75
2019-05-05T21:48:22.425Z,12.07
2019-05-05T21:50:56.965Z,11.70
2019-05-05T21:53:29.926Z,10.85
2019-05-05T21:58:29.388Z,15.30
2019-05-05T22:01:04.475Z,13.45
2019-05-05T22:03:39.357Z,12.33
2019-05-05T22:06:07.940Z,11.68
2019-05-05T22:08:36.364Z,9.55
2019-05-05T22:11:05.419Z,8.53
2019-05-05T22:13:36.196Z,7.72
2019-05-05T22:16:04.286Z,7.70
2019-05-05T22:18:33.069Z,5.20
2019-05-05T22:21:04.454Z,6.90
2019-05-05T22:23:34.010Z,6.05
2019-05-05T22:26:04.232Z,6.55
2019-05-05T22:28:34.022Z,7.87
2019-05-05T22:31:04.751Z,6.35
2019-05-05T22:33:33.995Z,5.53
2019-05-05T22:36:04.373Z,5.78
2019-05-05T22:38:33.924Z,5.17
2019-05-05T22:41:02.659Z,5.87
2019-05-05T22:43:31.328Z,5.42
2019-05-05T22:46:00.116Z,6.65
2019-05-05T22:48:28.654Z,6.85
2019-05-05T22:50:57.096Z,6.90
2019-05-05T22:53:25.528Z,7.60
2019-05-05T22:55:54.127Z,7.05
2019-05-05T22:58:24.008Z,6.33
2019-05-05T23:00:54.687Z,7.25
2019-05-05T23:03:30.320Z,8.28
2019-05-05T23:06:04.331Z,6.30
2019-05-05T23:08:34.894Z,4.50
2019-05-05T23:11:04.062Z,3.77
2019-05-05T23:13:34.163Z,5.25
2019-05-05T23:16:10.441Z,4.50
2019-05-05T23:18:39.676Z,4.92
2019-05-05T23:21:18.567Z,4.72
2019-05-05T23:24:00.303Z,4.60
2019-05-05T23:26:36.035Z,5.83
2019-05-05T23:29:04.971Z,5.25
2019-05-05T23:31:33.943Z,7.47
2019-05-05T23:34:03.976Z,6.92
2019-05-05T23:36:33.943Z,5.80
2019-05-05T23:39:04.414Z,5.90
2019-05-05T23:41:34.866Z,6.85
2019-05-05T23:44:04.522Z,8.35
2019-05-05T23:46:34.832Z,8.98
2019-05-05T23:49:04.269Z,10.48
2019-05-05T23:51:34.668Z,11.75
2019-05-05T23:54:04.271Z,10.23
2019-05-05T23:56:34.992Z,4.10
2019-05-05T23:59:04.268Z,6.45
